This is the latest recevied weather packets stored in our database for station/object I3RKE-10. If no packets are shown the sender has not sent any weather packets the latest 1 day(s).
| Time | Temp. | Humidity | Pressure | Rain* | Wind** | Luminosity | Snow |
|---|---|---|---|---|---|---|---|
| 1778068629 | 17.22° C | 82% | 1004.9 hPa | - | - | - | - |
| 1778067729 | 16.11° C | 85% | 1005.1 hPa | - | - | - | - |
| 1778063227 | 16.67° C | 80% | 1005.3 hPa | - | - | - | - |
| 1778062327 | 15.56° C | 84% | 1005.3 hPa | - | - | - | - |
| 1778061427 | 16.11° C | 81% | 1005.4 hPa | - | - | - | - |
| 1778060527 | 16.67° C | 78% | 1005.4 hPa | - | - | - | - |
| 1778055126 | 17.22° C | 79% | 1004.9 hPa | - | - | - | - |
| 1778054226 | 16.67° C | 82% | 1004.6 hPa | - | - | - | - |
| 1778052482 | 15.56° C | 83% | 1004.9 hPa | - | - | - | - |
| 1778048825 | 15° C | 86% | 1005.2 hPa | - | - | - | - |
| 1778047025 | 15° C | 86% | 1005.2 hPa | - | - | - | - |
| 1778046125 | 15° C | 85% | 1005.1 hPa | - | - | - | - |
| 1778045225 | 14.44° C | 83% | 1005.3 hPa | - | - | - | - |
| 1778044325 | 13.89° C | 83% | 1005.4 hPa | - | - | - | - |
| 1778039824 | 12.78° C | 88% | 1005.1 hPa | - | - | - | - |
| 1778038924 | 12.78° C | 88% | 1005.3 hPa | - | - | - | - |
| 1778038024 | 12.78° C | 87% | 1005.6 hPa | - | - | - | - |
| 1778037124 | 12.78° C | 86% | 1005.6 hPa | - | - | - | - |
| 1778036224 | 12.78° C | 88% | 1005.7 hPa | - | - | - | - |
| 1778035324 | 12.22° C | 89% | 1005.8 hPa | - | - | - | - |
| 1778034424 | 13.33° C | 89% | 1005.7 hPa | - | - | - | - |
| 1778033523 | 12.22° C | 90% | 1006 hPa | - | - | - | - |
| 1778029923 | 12.78° C | 91% | 1006.1 hPa | - | - | - | - |
| 1778029023 | 12.78° C | 92% | 1006.2 hPa | - | - | - | - |
| 1778028123 | 13.33° C | 91% | 1006 hPa | - | - | - | - |
* Rain since midnight (hover to see other rain measurements)
** Current wind speed in m/s (hover to see current wind gust speed)